createdAt,value
2022-10-15T05:32:51.811Z,100299.75
2022-10-15T05:38:13.313Z,100301.41
2022-10-15T05:43:37.409Z,100311.84
2022-10-15T05:49:06.178Z,100307.56
2022-10-15T05:54:39.147Z,100311.09
2022-10-15T06:00:00.026Z,100318.13
2022-10-15T06:05:20.860Z,100317.09
2022-10-15T06:10:41.735Z,100320.78
2022-10-15T06:16:03.859Z,100325.53
2022-10-15T06:21:25.075Z,100327.34
2022-10-15T06:26:46.110Z,100331.94
2022-10-15T06:32:11.362Z,100337.66
2022-10-15T06:37:36.969Z,100338.94
2022-10-15T06:43:09.011Z,100341.25
2022-10-15T06:48:30.437Z,100356.59
2022-10-15T06:53:51.376Z,100349.09
2022-10-15T06:59:12.456Z,100360.59
2022-10-15T07:04:33.469Z,100362.47
2022-10-15T07:09:55.255Z,100374.19
2022-10-15T07:15:16.226Z,100385.50
2022-10-15T07:20:37.143Z,100394.34
2022-10-15T07:25:59.738Z,100388.91
2022-10-15T07:31:21.043Z,100398.16
2022-10-15T07:36:42.157Z,100395.00
2022-10-15T07:42:02.988Z,100400.03
2022-10-15T07:47:23.918Z,100396.41
2022-10-15T07:52:45.179Z,100393.50
2022-10-15T07:58:08.226Z,100397.75
2022-10-15T08:03:30.556Z,100404.88
2022-10-15T08:08:51.152Z,100394.81
2022-10-15T08:14:12.089Z,100386.63
2022-10-15T08:19:33.507Z,100390.31
2022-10-15T08:24:54.449Z,100404.78
2022-10-15T08:30:15.184Z,100410.16
2022-10-15T08:35:39.021Z,100417.19
2022-10-15T08:41:02.611Z,100421.59
2022-10-15T08:46:42.238Z,100420.81
2022-10-15T08:52:21.247Z,100418.34
2022-10-15T08:58:04.052Z,100430.31
2022-10-15T09:03:47.677Z,100430.31
2022-10-15T09:09:11.798Z,100428.56
2022-10-15T09:14:38.129Z,100437.53
2022-10-15T09:20:04.105Z,100432.97
2022-10-15T09:25:27.482Z,100427.44
2022-10-15T09:30:57.536Z,100432.69
2022-10-15T09:36:27.530Z,100434.72
2022-10-15T09:42:06.893Z,100440.47
2022-10-15T09:47:33.731Z,100441.25
2022-10-15T09:53:23.257Z,100437.38
2022-10-15T09:58:53.765Z,100438.53
2022-10-15T10:04:20.769Z,100443.34
2022-10-15T10:09:56.701Z,100444.56
2022-10-15T10:15:29.577Z,100450.09
2022-10-15T10:20:59.620Z,100449.25
2022-10-15T10:26:20.609Z,100446.53
2022-10-15T10:31:45.001Z,100448.50
2022-10-15T10:37:14.186Z,100436.00
2022-10-15T10:42:38.121Z,100451.47
2022-10-15T10:48:23.786Z,100445.28
2022-10-15T10:54:01.074Z,100452.09
2022-10-15T10:59:27.967Z,100444.31
2022-10-15T11:04:48.779Z,100444.78
2022-10-15T11:10:28.239Z,100446.22
2022-10-15T11:16:18.162Z,100444.50
2022-10-15T11:21:47.932Z,100450.50
2022-10-15T11:27:43.925Z,100455.22
2022-10-15T11:33:33.740Z,100443.16
2022-10-15T11:39:47.096Z,100441.13
2022-10-15T11:45:29.325Z,100447.06
2022-10-15T11:51:07.469Z,100451.22
2022-10-15T11:56:38.780Z,100458.13
2022-10-15T12:02:06.196Z,100448.28
2022-10-15T12:07:37.340Z,100437.63
2022-10-15T12:13:07.361Z,100433.06
2022-10-15T12:18:40.789Z,100426.38
2022-10-15T12:24:02.275Z,100424.16
2022-10-15T12:29:27.278Z,100431.66
2022-10-15T12:34:55.825Z,100432.78
2022-10-15T12:40:22.834Z,100435.25
2022-10-15T12:45:56.526Z,100427.91
2022-10-15T12:51:17.281Z,100437.19
2022-10-15T12:56:42.542Z,100432.03
2022-10-15T13:02:03.502Z,100433.44
2022-10-15T13:07:25.117Z,100424.84
2022-10-15T13:12:53.959Z,100426.13
2022-10-15T13:18:16.805Z,100431.75
2022-10-15T13:23:46.172Z,100420.72
2022-10-15T13:29:18.638Z,100412.44
2022-10-15T13:34:41.791Z,100410.16
2022-10-15T13:40:07.796Z,100407.03
2022-10-15T13:45:30.112Z,100410.53
2022-10-15T13:50:57.350Z,100413.97
2022-10-15T13:56:26.474Z,100425.22
2022-10-15T14:01:51.898Z,100421.91
2022-10-15T14:07:27.657Z,100424.25
2022-10-15T14:12:52.063Z,100419.22
2022-10-15T14:18:15.772Z,100422.69
2022-10-15T14:23:36.809Z,100422.53
2022-10-15T14:28:57.680Z,100424.22
2022-10-15T14:34:46.354Z,100430.81
2022-10-15T14:40:13.161Z,100435.72
2022-10-15T14:45:52.705Z,100441.97
2022-10-15T14:51:25.581Z,100442.69
2022-10-15T14:56:46.483Z,100433.22
2022-10-15T15:02:14.772Z,100433.22
2022-10-15T15:07:35.812Z,100438.91
2022-10-15T15:12:57.434Z,100446.06
2022-10-15T15:18:19.217Z,100443.78
2022-10-15T15:23:40.760Z,100446.00
2022-10-15T15:29:01.946Z,100466.41
2022-10-15T15:34:23.807Z,100458.28
2022-10-15T15:39:45.118Z,100458.84
2022-10-15T15:45:06.599Z,100461.03
2022-10-15T15:50:27.493Z,100455.47
2022-10-15T15:55:48.730Z,100448.25
2022-10-15T16:01:10.093Z,100456.59
2022-10-15T16:06:31.340Z,100469.03
2022-10-15T16:11:52.816Z,100473.13
2022-10-15T16:17:13.644Z,100482.50
2022-10-15T16:22:34.562Z,100487.47
2022-10-15T16:27:57.178Z,100486.50
2022-10-15T16:33:18.321Z,100478.66
2022-10-15T16:38:40.530Z,100490.44
2022-10-15T16:44:01.815Z,100492.78
2022-10-15T16:49:22.265Z,100495.91
2022-10-15T16:54:43.031Z,100500.78
2022-10-15T17:00:05.114Z,100496.88
2022-10-15T17:05:26.178Z,100506.13
2022-10-15T17:10:46.984Z,100515.34
2022-10-15T17:16:18.628Z,100523.81
2022-10-15T17:21:42.453Z,100534.78
2022-10-15T17:27:04.647Z,100541.38
2022-10-15T17:32:25.816Z,100543.66
2022-10-15T17:37:47.240Z,100545.09
2022-10-15T17:43:08.004Z,100548.13
2022-10-15T17:48:29.686Z,100555.66
2022-10-15T17:53:52.278Z,100550.34
2022-10-15T17:59:13.524Z,100549.34
2022-10-15T18:04:34.366Z,100552.47
2022-10-15T18:09:55.228Z,100548.16
2022-10-15T18:15:15.898Z,100544.47
2022-10-15T18:20:40.573Z,100542.44
2022-10-15T18:26:03.356Z,100541.50
2022-10-15T18:31:26.216Z,100550.88
2022-10-15T18:36:47.206Z,100549.00
2022-10-15T18:42:07.825Z,100549.06
2022-10-15T18:47:28.680Z,100548.00
2022-10-15T18:52:49.478Z,100559.25
2022-10-15T18:58:10.408Z,100565.81
2022-10-15T19:03:32.293Z,100567.84
2022-10-15T19:08:53.340Z,100563.44
2022-10-15T19:14:15.900Z,100560.13
2022-10-15T19:19:38.343Z,100556.38
2022-10-15T19:24:59.227Z,100561.53
2022-10-15T19:30:21.137Z,100564.09
2022-10-15T19:35:41.934Z,100555.41
2022-10-15T19:41:04.684Z,100553.63
2022-10-15T19:46:26.840Z,100553.53
2022-10-15T19:51:48.934Z,100548.28
2022-10-15T19:57:09.911Z,100549.09
2022-10-15T20:02:32.091Z,100559.53
2022-10-15T20:07:52.821Z,100561.19
2022-10-15T20:13:15.721Z,100565.50
2022-10-15T20:18:36.985Z,100575.19
2022-10-15T20:23:58.924Z,100578.09
2022-10-15T20:29:20.035Z,100598.19
2022-10-15T20:34:40.914Z,100609.66
2022-10-15T20:40:01.668Z,100614.28
2022-10-15T20:45:22.716Z,100605.06
2022-10-15T20:50:44.087Z,100608.69
2022-10-15T20:56:05.727Z,100607.19
2022-10-15T21:01:26.691Z,100609.97
2022-10-15T21:06:47.493Z,100611.03
2022-10-15T21:12:10.171Z,100623.31
2022-10-15T21:17:30.816Z,100625.97
2022-10-15T21:22:51.637Z,100632.06
2022-10-15T21:28:12.297Z,100628.72
2022-10-15T21:33:34.033Z,100641.63
2022-10-15T21:39:02.002Z,100636.31
2022-10-15T21:44:22.768Z,100642.25
2022-10-15T21:49:45.710Z,100640.50
2022-10-15T21:55:06.833Z,100625.75
